createdAt,value
2019-01-11T00:00:56.513Z,60.00
2019-01-11T00:01:57.575Z,60.00
2019-01-11T00:02:58.828Z,60.00
2019-01-11T00:03:59.928Z,59.30
2019-01-11T00:05:00.980Z,60.20
2019-01-11T00:06:02.108Z,60.10
2019-01-11T00:07:03.350Z,60.90
2019-01-11T00:08:04.968Z,61.10
2019-01-11T00:09:06.276Z,60.40
2019-01-11T00:10:07.824Z,59.40
2019-01-11T00:11:08.824Z,58.20
2019-01-11T00:12:09.987Z,58.80
2019-01-11T00:13:10.994Z,58.10
2019-01-11T00:14:12.228Z,58.10
2019-01-11T00:15:13.245Z,58.10
2019-01-11T00:16:14.396Z,57.50
2019-01-11T00:17:15.566Z,58.00
2019-01-11T00:18:16.815Z,57.70
2019-01-11T00:19:17.819Z,58.00
2019-01-11T00:20:18.828Z,58.00
2019-01-11T00:21:19.919Z,57.70
2019-01-11T00:22:21.012Z,58.10
2019-01-11T00:23:22.036Z,57.80
2019-01-11T00:24:23.064Z,58.00
2019-01-11T00:25:24.100Z,57.40
2019-01-11T00:26:25.102Z,58.00
2019-01-11T00:27:26.189Z,57.90
2019-01-11T00:28:27.280Z,57.80
2019-01-11T00:29:28.302Z,57.80
2019-01-11T00:30:29.351Z,58.00
2019-01-11T00:31:30.371Z,58.20
2019-01-11T00:32:31.427Z,58.40
2019-01-11T00:33:32.440Z,58.60
2019-01-11T00:34:33.464Z,58.90
2019-01-11T00:35:34.480Z,59.30
2019-01-11T00:36:35.506Z,59.10
2019-01-11T00:37:36.523Z,59.00
2019-01-11T00:38:37.675Z,59.30
2019-01-11T00:39:38.709Z,59.20
2019-01-11T00:40:39.807Z,59.50
2019-01-11T00:41:41.325Z,60.10
2019-01-11T00:42:42.356Z,59.70
2019-01-11T00:43:43.379Z,59.80
2019-01-11T00:44:44.400Z,59.70
2019-01-11T00:45:45.514Z,60.00
2019-01-11T00:46:46.531Z,60.00
2019-01-11T00:47:47.578Z,59.90
2019-01-11T00:48:48.596Z,59.80
2019-01-11T00:49:49.812Z,59.60
2019-01-11T00:50:50.836Z,60.00
2019-01-11T00:51:51.878Z,60.10
2019-01-11T00:52:52.924Z,60.20
2019-01-11T00:53:53.943Z,60.30
2019-01-11T00:54:54.968Z,60.50
2019-01-11T00:55:55.993Z,60.80
2019-01-11T00:56:57.013Z,61.00
2019-01-11T00:57:58.044Z,61.00
2019-01-11T00:58:59.052Z,61.10
2019-01-11T01:00:00.155Z,61.20
2019-01-11T01:01:01.288Z,61.20
2019-01-11T01:02:02.709Z,62.10
2019-01-11T01:03:04.127Z,61.20
2019-01-11T01:04:05.152Z,61.10
2019-01-11T01:05:06.365Z,61.20
2019-01-11T01:06:07.488Z,61.60
2019-01-11T01:07:08.807Z,61.40
2019-01-11T01:08:09.836Z,61.60
2019-01-11T01:09:10.844Z,61.50
2019-01-11T01:10:12.190Z,61.70
2019-01-11T01:11:13.192Z,61.60
2019-01-11T01:12:14.316Z,61.70
2019-01-11T01:13:15.443Z,61.60
2019-01-11T01:14:16.472Z,61.80
2019-01-11T01:15:17.991Z,62.00
2019-01-11T01:16:19.013Z,62.00
2019-01-11T01:17:20.032Z,62.10
2019-01-11T01:18:21.163Z,62.10
2019-01-11T01:19:22.180Z,62.20
2019-01-11T01:20:23.201Z,62.10
2019-01-11T01:21:24.216Z,61.80
2019-01-11T01:22:25.247Z,62.30
2019-01-11T01:23:26.268Z,62.60
2019-01-11T01:24:27.544Z,61.80
2019-01-11T01:25:28.552Z,61.70
2019-01-11T01:26:29.670Z,62.30
2019-01-11T01:27:30.704Z,62.50
2019-01-11T01:28:31.728Z,62.10
2019-01-11T01:29:32.760Z,62.90
2019-01-11T01:30:34.077Z,62.00
2019-01-11T01:31:35.368Z,62.10
2019-01-11T01:32:36.396Z,62.10
2019-01-11T01:33:37.422Z,62.80
2019-01-11T01:34:38.429Z,62.30
2019-01-11T01:35:39.436Z,62.20
2019-01-11T01:36:40.453Z,61.90
2019-01-11T01:37:41.796Z,61.70
2019-01-11T01:38:42.822Z,61.30
2019-01-11T01:39:43.840Z,61.60
2019-01-11T01:40:44.860Z,61.50
2019-01-11T01:41:45.876Z,61.70
2019-01-11T01:42:46.908Z,61.90
2019-01-11T01:43:47.929Z,61.60
2019-01-11T01:44:49.063Z,62.00
2019-01-11T01:45:50.076Z,61.70
2019-01-11T01:46:51.093Z,61.60
2019-01-11T01:47:52.146Z,61.60
2019-01-11T01:48:53.240Z,61.50
2019-01-11T01:49:54.263Z,61.60
2019-01-11T01:50:55.294Z,61.60
2019-01-11T01:51:56.325Z,61.10
2019-01-11T01:52:57.356Z,61.20
2019-01-11T01:53:58.368Z,61.20
2019-01-11T01:54:59.397Z,61.40
2019-01-11T01:56:00.424Z,61.40
2019-01-11T01:57:01.439Z,61.10
2019-01-11T01:58:03.363Z,61.00
2019-01-11T01:59:04.377Z,61.10
2019-01-11T02:00:15.207Z,61.80
2019-01-11T02:01:16.232Z,61.80
2019-01-11T02:02:17.252Z,61.80
2019-01-11T02:03:18.292Z,61.90
2019-01-11T02:04:19.324Z,61.60
2019-01-11T02:05:20.648Z,61.20
2019-01-11T02:06:21.668Z,60.90
2019-01-11T02:07:22.677Z,61.60
2019-01-11T02:08:23.726Z,60.70
2019-01-11T02:09:24.747Z,60.70
2019-01-11T02:10:25.864Z,60.50
2019-01-11T02:11:26.903Z,60.50
2019-01-11T02:12:28.028Z,60.50
2019-01-11T02:13:29.060Z,60.40
2019-01-11T02:14:30.068Z,61.20
2019-01-11T02:15:31.180Z,60.40
2019-01-11T02:16:32.206Z,60.30
2019-01-11T02:17:33.211Z,60.50
2019-01-11T02:18:34.243Z,60.50
2019-01-11T02:19:35.255Z,60.50
2019-01-11T02:20:36.272Z,60.20
2019-01-11T02:21:37.395Z,60.20
2019-01-11T02:22:38.417Z,60.00
2019-01-11T02:23:39.439Z,60.30
2019-01-11T02:24:40.462Z,60.20
2019-01-11T02:25:46.167Z,60.20
2019-01-11T02:26:44.430Z,60.40
2019-01-11T02:27:45.448Z,60.50
2019-01-11T02:28:46.475Z,60.60
2019-01-11T02:29:47.497Z,60.80
2019-01-11T02:30:48.522Z,61.10
2019-01-11T02:31:49.543Z,60.40
2019-01-11T02:32:53.081Z,60.60
2019-01-11T02:33:53.492Z,60.80
2019-01-11T02:34:54.517Z,61.00
2019-01-11T02:35:55.537Z,60.90
2019-01-11T02:36:56.563Z,61.20
2019-01-11T02:37:57.887Z,61.60
2019-01-11T02:38:59.034Z,61.70
2019-01-11T02:40:00.095Z,61.30
2019-01-11T02:41:01.263Z,61.90
2019-01-11T02:42:02.387Z,61.70
2019-01-11T02:43:03.604Z,61.80
2019-01-11T02:44:04.632Z,61.80
2019-01-11T02:45:09.260Z,61.40
2019-01-11T02:46:10.391Z,61.90
2019-01-11T02:47:11.416Z,62.20
2019-01-11T02:48:12.427Z,62.10
2019-01-11T02:49:13.447Z,62.00
2019-01-11T02:50:14.766Z,62.20
2019-01-11T02:51:15.798Z,61.80
2019-01-11T02:52:16.830Z,61.50
2019-01-11T02:53:17.849Z,62.20
2019-01-11T02:54:18.866Z,62.20
2019-01-11T02:55:19.885Z,62.50
2019-01-11T02:56:20.900Z,62.60
2019-01-11T02:57:21.921Z,62.10
2019-01-11T02:58:22.939Z,62.10
2019-01-11T02:59:23.960Z,62.20
2019-01-11T03:00:24.983Z,61.90
2019-01-11T03:01:26.001Z,61.90
2019-01-11T03:02:27.033Z,61.80
2019-01-11T03:03:28.045Z,61.90
2019-01-11T03:04:29.077Z,61.70
2019-01-11T03:05:30.106Z,61.70
2019-01-11T03:06:31.132Z,62.10
2019-01-11T03:07:32.151Z,62.20
2019-01-11T03:08:33.163Z,61.20
2019-01-11T03:09:34.177Z,61.30
2019-01-11T03:10:35.207Z,61.40
2019-01-11T03:11:36.241Z,61.60
2019-01-11T03:12:37.244Z,61.80
2019-01-11T03:13:38.272Z,62.00
2019-01-11T03:14:39.304Z,62.50
2019-01-11T03:15:40.319Z,62.60
2019-01-11T03:16:41.655Z,62.80
2019-01-11T03:17:43.677Z,62.70
2019-01-11T03:18:45.004Z,62.40
2019-01-11T03:19:47.887Z,62.50
2019-01-11T03:20:48.956Z,62.50
2019-01-11T03:21:50.075Z,62.00
2019-01-11T03:22:51.093Z,62.20
2019-01-11T03:23:52.123Z,60.90
2019-01-11T03:24:53.145Z,61.20
2019-01-11T03:25:54.166Z,60.30
2019-01-11T03:26:55.196Z,60.40
2019-01-11T03:27:56.230Z,60.80
2019-01-11T03:28:57.261Z,61.20
2019-01-11T03:29:58.284Z,61.40
2019-01-11T03:31:01.207Z,61.60
2019-01-11T03:32:02.591Z,61.30
2019-01-11T03:33:03.624Z,61.10
2019-01-11T03:34:04.661Z,60.80
2019-01-11T03:35:07.680Z,61.40
2019-01-11T03:36:08.704Z,61.60
2019-01-11T03:37:09.723Z,61.90
2019-01-11T03:38:10.875Z,62.00
2019-01-11T03:39:12.075Z,61.40
2019-01-11T03:40:15.900Z,61.00
2019-01-11T03:41:16.919Z,60.60
2019-01-11T03:42:18.245Z,60.60
2019-01-11T03:43:19.266Z,60.20
2019-01-11T03:44:20.300Z,59.80
2019-01-11T03:45:22.538Z,61.00
2019-01-11T03:46:23.651Z,60.10
2019-01-11T03:47:24.675Z,60.00
2019-01-11T03:48:25.693Z,60.00
2019-01-11T03:49:26.726Z,60.20
2019-01-11T03:50:27.754Z,61.20
2019-01-11T03:51:28.785Z,60.20
2019-01-11T03:52:29.840Z,60.10
2019-01-11T03:53:30.955Z,60.40
2019-01-11T03:54:31.990Z,60.70
2019-01-11T03:55:32.995Z,59.90
2019-01-11T03:56:34.016Z,59.90
2019-01-11T03:57:35.037Z,60.60
2019-01-11T03:58:36.160Z,60.10
2019-01-11T03:59:37.175Z,61.10
2019-01-11T04:00:38.200Z,60.30
2019-01-11T04:01:39.216Z,60.40
2019-01-11T04:02:40.241Z,60.80
2019-01-11T04:03:41.256Z,60.40
2019-01-11T04:04:42.293Z,59.80
2019-01-11T04:05:43.314Z,60.00
2019-01-11T04:06:44.328Z,60.10
2019-01-11T04:07:45.369Z,60.10
2019-01-11T04:08:46.460Z,60.50
2019-01-11T04:09:47.494Z,61.00
2019-01-11T04:10:48.510Z,61.40
2019-01-11T04:11:49.523Z,61.40
2019-01-11T04:12:50.636Z,60.50
2019-01-11T04:13:51.652Z,60.70
2019-01-11T04:14:52.700Z,60.70
2019-01-11T04:15:53.708Z,60.20
2019-01-11T04:16:54.720Z,60.40
2019-01-11T04:17:57.644Z,59.70
2019-01-11T04:19:00.574Z,59.10
2019-01-11T04:20:03.904Z,59.30
2019-01-11T04:21:05.025Z,59.50
2019-01-11T04:22:08.049Z,59.70
2019-01-11T04:23:09.080Z,59.80
2019-01-11T04:24:10.130Z,59.70
2019-01-11T04:25:13.077Z,59.90
2019-01-11T04:26:14.095Z,60.00
2019-01-11T04:27:15.134Z,59.70
2019-01-11T04:28:16.158Z,60.20
2019-01-11T04:29:17.208Z,60.20
2019-01-11T04:30:18.926Z,59.90
2019-01-11T04:31:19.948Z,60.00
2019-01-11T04:32:20.975Z,59.90
2019-01-11T04:33:21.986Z,59.90
2019-01-11T04:34:23.017Z,60.00
2019-01-11T04:35:24.052Z,59.90
2019-01-11T04:36:25.077Z,60.00
2019-01-11T04:37:26.094Z,60.00
2019-01-11T04:38:27.212Z,60.20
2019-01-11T04:39:28.259Z,60.00
2019-01-11T04:40:34.182Z,59.90
2019-01-11T04:41:32.200Z,59.40
2019-01-11T04:42:33.204Z,59.70
2019-01-11T04:43:34.248Z,59.60
2019-01-11T04:44:35.269Z,59.50
2019-01-11T04:45:36.292Z,59.50
2019-01-11T04:46:37.321Z,59.40
2019-01-11T04:47:38.342Z,59.40
2019-01-11T04:48:39.356Z,59.40
2019-01-11T04:49:41.300Z,59.30
2019-01-11T04:50:42.318Z,59.20
2019-01-11T04:51:43.361Z,58.70
2019-01-11T04:52:46.152Z,58.20
2019-01-11T04:53:49.324Z,58.60
2019-01-11T04:54:50.343Z,58.80
2019-01-11T04:55:51.365Z,58.80
2019-01-11T04:56:52.399Z,59.20
2019-01-11T04:57:53.420Z,59.00
2019-01-11T04:58:54.457Z,59.10
2019-01-11T04:59:55.488Z,59.10
2019-01-11T05:00:56.625Z,59.00
2019-01-11T05:01:57.652Z,58.90
2019-01-11T05:02:58.685Z,58.80
2019-01-11T05:03:59.793Z,58.80
2019-01-11T05:05:01.056Z,58.90
2019-01-11T05:06:02.085Z,58.50
2019-01-11T05:07:03.222Z,58.40
2019-01-11T05:08:04.236Z,58.60
2019-01-11T05:09:05.662Z,58.60
2019-01-11T05:10:09.798Z,58.80
2019-01-11T05:11:10.835Z,58.40
2019-01-11T05:12:11.943Z,58.50
2019-01-11T05:13:23.609Z,58.50
2019-01-11T05:14:24.627Z,58.20
2019-01-11T05:15:25.667Z,57.70
2019-01-11T05:16:26.681Z,57.80
2019-01-11T05:17:27.701Z,57.70
2019-01-11T05:18:28.721Z,57.80
2019-01-11T05:19:29.749Z,57.80
2019-01-11T05:20:30.777Z,57.50
2019-01-11T05:21:31.793Z,57.80
2019-01-11T05:22:32.826Z,57.80
2019-01-11T05:23:33.844Z,57.70
2019-01-11T05:24:34.869Z,58.00
2019-01-11T05:25:35.895Z,58.70
2019-01-11T05:26:36.913Z,58.30
2019-01-11T05:27:37.940Z,57.90
2019-01-11T05:28:38.961Z,58.80
2019-01-11T05:29:39.996Z,58.00
2019-01-11T05:30:41.034Z,58.20
2019-01-11T05:31:42.054Z,58.30
2019-01-11T05:32:43.076Z,58.20
2019-01-11T05:33:44.188Z,57.50
2019-01-11T05:34:45.204Z,57.90
2019-01-11T05:35:46.235Z,57.80
2019-01-11T05:36:47.249Z,57.80
2019-01-11T05:37:48.269Z,58.00
2019-01-11T05:38:49.289Z,58.00
2019-01-11T05:39:50.309Z,58.00
2019-01-11T05:40:51.342Z,57.80
2019-01-11T05:41:52.357Z,57.50
2019-01-11T05:42:53.376Z,57.30
2019-01-11T05:43:54.388Z,57.20
2019-01-11T05:44:55.404Z,57.20
2019-01-11T05:45:56.435Z,57.20
2019-01-11T05:46:57.448Z,57.30
2019-01-11T05:47:58.473Z,57.30
2019-01-11T05:48:59.510Z,57.20
2019-01-11T05:50:00.524Z,57.70
2019-01-11T05:51:01.569Z,57.20
2019-01-11T05:52:02.620Z,57.10
2019-01-11T05:53:03.626Z,57.30
2019-01-11T05:54:04.939Z,57.80
2019-01-11T05:55:07.666Z,57.90
2019-01-11T05:56:08.970Z,57.50
2019-01-11T05:57:10.002Z,57.60
2019-01-11T05:58:22.017Z,57.20
2019-01-11T05:59:23.042Z,57.20
2019-01-11T06:00:24.051Z,57.70
2019-01-11T06:01:25.085Z,57.80
2019-01-11T06:02:26.115Z,57.50
2019-01-11T06:03:27.147Z,56.80
2019-01-11T06:04:38.901Z,57.50
2019-01-11T06:05:40.183Z,57.70
2019-01-11T06:06:49.198Z,58.10
2019-01-11T06:07:50.313Z,58.10
2019-01-11T06:08:51.825Z,58.40
2019-01-11T06:09:52.932Z,57.70
2019-01-11T06:10:53.953Z,57.90
2019-01-11T06:11:54.979Z,58.00
2019-01-11T06:12:55.988Z,58.00
2019-01-11T06:13:57.029Z,58.10
2019-01-11T06:14:58.061Z,58.20
2019-01-11T06:15:59.092Z,57.90
2019-01-11T06:17:00.101Z,57.90
2019-01-11T06:18:01.114Z,57.90
2019-01-11T06:19:02.240Z,57.90
2019-01-11T06:20:07.065Z,58.00
2019-01-11T06:21:08.097Z,57.90
2019-01-11T06:22:09.112Z,57.90
2019-01-11T06:23:10.136Z,57.80
2019-01-11T06:24:11.178Z,57.60
2019-01-11T06:25:12.328Z,57.80
2019-01-11T06:26:13.353Z,57.70
2019-01-11T06:27:14.369Z,57.40
2019-01-11T06:28:15.417Z,57.40
2019-01-11T06:29:16.432Z,57.30
2019-01-11T06:30:17.461Z,57.50
2019-01-11T06:31:18.494Z,57.80
2019-01-11T06:32:19.525Z,57.50
2019-01-11T06:33:20.601Z,57.50
2019-01-11T06:34:21.662Z,57.40
2019-01-11T06:35:23.190Z,57.40
2019-01-11T06:36:25.171Z,57.50
2019-01-11T06:37:27.447Z,57.40
2019-01-11T06:38:28.790Z,57.40
2019-01-11T06:39:31.813Z,57.50
2019-01-11T06:40:33.367Z,57.40
2019-01-11T06:41:39.749Z,57.40
2019-01-11T06:42:40.841Z,57.50
2019-01-11T06:43:43.956Z,57.40
2019-01-11T06:44:44.969Z,57.60
2019-01-11T06:45:51.160Z,57.40
2019-01-11T06:46:52.288Z,57.80
2019-01-11T06:47:53.319Z,57.80
2019-01-11T06:48:54.349Z,58.00
2019-01-11T06:49:55.681Z,57.60
2019-01-11T06:50:56.933Z,57.80
2019-01-11T06:51:58.360Z,57.40
2019-01-11T06:53:02.436Z,57.90
2019-01-11T06:54:03.687Z,58.00
2019-01-11T06:55:05.548Z,57.90
2019-01-11T06:56:06.575Z,58.00
2019-01-11T06:57:07.651Z,57.40
2019-01-11T06:58:09.369Z,57.70
2019-01-11T06:59:10.485Z,57.90
2019-01-11T07:00:14.330Z,57.70
2019-01-11T07:01:15.365Z,57.90
2019-01-11T07:02:16.384Z,57.60
2019-01-11T07:03:17.428Z,57.60
2019-01-11T07:04:18.439Z,57.60
2019-01-11T07:05:19.464Z,57.70
2019-01-11T07:06:20.492Z,57.70
2019-01-11T07:07:21.524Z,57.60
2019-01-11T07:08:22.554Z,57.60
2019-01-11T07:09:23.579Z,57.60
2019-01-11T07:10:24.594Z,57.60
2019-01-11T07:11:25.627Z,57.50
2019-01-11T07:12:26.667Z,57.50
2019-01-11T07:13:27.690Z,57.50
2019-01-11T07:14:28.740Z,57.50
2019-01-11T07:15:32.012Z,57.50
2019-01-11T07:16:33.185Z,57.50
2019-01-11T07:17:34.227Z,57.40
2019-01-11T07:18:35.240Z,57.40
2019-01-11T07:19:36.277Z,57.70
2019-01-11T07:20:42.782Z,57.40
2019-01-11T07:21:40.533Z,58.00
2019-01-11T07:22:41.907Z,58.00
2019-01-11T07:23:42.923Z,58.10
2019-01-11T07:24:44.653Z,58.20
2019-01-11T07:25:45.784Z,58.20
2019-01-11T07:26:46.805Z,58.20
2019-01-11T07:27:55.272Z,58.30
2019-01-11T07:28:56.345Z,58.40
2019-01-11T07:29:57.429Z,58.40
2019-01-11T07:31:03.143Z,58.50
2019-01-11T07:32:04.293Z,58.50
2019-01-11T07:33:07.094Z,58.10
2019-01-11T07:34:08.128Z,57.80
2019-01-11T07:35:09.360Z,58.20
2019-01-11T07:36:15.284Z,58.40
2019-01-11T07:37:16.311Z,58.50
2019-01-11T07:38:17.324Z,58.70
2019-01-11T07:39:20.250Z,58.60
2019-01-11T07:40:21.279Z,58.40
2019-01-11T07:41:22.532Z,58.20
2019-01-11T07:42:23.586Z,58.20
2019-01-11T07:43:24.605Z,58.10
2019-01-11T07:44:26.136Z,58.20
2019-01-11T07:45:27.165Z,58.30
2019-01-11T07:46:28.168Z,57.80
2019-01-11T07:47:29.204Z,58.20
2019-01-11T07:48:30.221Z,58.00
2019-01-11T07:49:31.248Z,57.90
2019-01-11T07:50:32.489Z,58.20
2019-01-11T07:51:33.624Z,58.10
2019-01-11T07:52:34.670Z,57.50
2019-01-11T07:53:35.667Z,58.10
2019-01-11T07:54:36.697Z,58.10
2019-01-11T07:55:37.730Z,58.50
2019-01-11T07:56:38.759Z,58.50
2019-01-11T07:57:39.774Z,58.40
2019-01-11T07:58:40.796Z,58.50
2019-01-11T07:59:41.820Z,58.90
2019-01-11T08:00:42.844Z,58.90
2019-01-11T08:01:43.867Z,59.00
2019-01-11T08:02:45.035Z,59.10
2019-01-11T08:03:46.036Z,59.20
2019-01-11T08:04:47.052Z,59.50
2019-01-11T08:05:48.072Z,59.70
2019-01-11T08:06:49.101Z,59.90
2019-01-11T08:07:50.135Z,60.10
2019-01-11T08:08:51.144Z,60.30
2019-01-11T08:09:52.261Z,60.30
2019-01-11T08:10:53.282Z,60.40
2019-01-11T08:11:54.312Z,60.70
2019-01-11T08:12:55.344Z,60.60
2019-01-11T08:13:56.453Z,60.80
2019-01-11T08:14:57.473Z,60.90
2019-01-11T08:15:58.488Z,61.10
2019-01-11T08:16:59.509Z,60.80
2019-01-11T08:18:00.546Z,61.00
2019-01-11T08:19:01.575Z,61.20
2019-01-11T08:20:04.184Z,61.20
2019-01-11T08:21:05.216Z,61.20
2019-01-11T08:22:08.230Z,61.30
2019-01-11T08:23:09.272Z,61.20
2019-01-11T08:24:10.280Z,61.20
2019-01-11T08:25:13.006Z,61.20
2019-01-11T08:26:14.135Z,61.30
2019-01-11T08:27:15.159Z,61.40
2019-01-11T08:28:16.272Z,61.60
2019-01-11T08:29:17.287Z,61.70
2019-01-11T08:30:18.313Z,62.00
2019-01-11T08:31:19.321Z,62.10
2019-01-11T08:32:20.336Z,62.30
2019-01-11T08:33:21.368Z,62.40
2019-01-11T08:34:22.388Z,62.20
2019-01-11T08:35:23.423Z,62.20
2019-01-11T08:36:24.458Z,62.10
2019-01-11T08:37:25.507Z,62.40
2019-01-11T08:38:28.254Z,62.20
2019-01-11T08:39:32.468Z,62.60
2019-01-11T08:40:32.196Z,63.10
2019-01-11T08:41:33.424Z,63.30
2019-01-11T08:42:34.449Z,63.40
2019-01-11T08:43:35.485Z,63.30
2019-01-11T08:44:36.617Z,63.20
2019-01-11T08:45:37.621Z,63.30
2019-01-11T08:46:38.651Z,63.30
2019-01-11T08:47:39.659Z,63.30
2019-01-11T08:48:40.705Z,63.30
2019-01-11T08:49:41.763Z,63.20
2019-01-11T08:50:42.780Z,63.60
2019-01-11T08:51:44.628Z,63.40
2019-01-11T08:52:45.752Z,63.50
2019-01-11T08:53:46.788Z,63.50
2019-01-11T08:54:47.812Z,63.50
2019-01-11T08:55:48.819Z,63.70
2019-01-11T08:56:49.848Z,63.70
2019-01-11T08:57:50.876Z,64.00
2019-01-11T08:58:51.908Z,64.10
2019-01-11T08:59:53.089Z,63.80
2019-01-11T09:00:54.188Z,64.10
2019-01-11T09:01:55.263Z,64.10
2019-01-11T09:02:56.296Z,64.40
2019-01-11T09:03:57.346Z,64.80
2019-01-11T09:04:58.368Z,64.80
2019-01-11T09:05:59.398Z,65.00
2019-01-11T09:07:00.712Z,65.30
2019-01-11T09:08:01.736Z,65.30
2019-01-11T09:09:05.784Z,65.10
2019-01-11T09:10:13.540Z,65.10
2019-01-11T09:11:14.551Z,65.10
2019-01-11T09:12:15.672Z,65.10
2019-01-11T09:13:16.704Z,65.40
2019-01-11T09:14:19.640Z,65.60
2019-01-11T09:15:20.706Z,65.90
2019-01-11T09:16:22.058Z,66.00
2019-01-11T09:17:23.065Z,65.90
2019-01-11T09:18:25.986Z,65.40
2019-01-11T09:19:27.016Z,65.90
2019-01-11T09:20:28.029Z,66.80
2019-01-11T09:21:29.449Z,65.80
2019-01-11T09:22:30.467Z,65.80
2019-01-11T09:23:31.475Z,65.70
2019-01-11T09:24:32.512Z,65.70
2019-01-11T09:25:36.293Z,65.90
2019-01-11T09:26:37.321Z,66.30
2019-01-11T09:27:38.352Z,66.00
2019-01-11T09:28:40.560Z,66.10
2019-01-11T09:29:41.620Z,66.50
2019-01-11T09:30:42.632Z,66.40
2019-01-11T09:31:43.673Z,65.90
2019-01-11T09:32:45.085Z,66.10
2019-01-11T09:33:46.105Z,65.40
2019-01-11T09:34:47.132Z,65.80
2019-01-11T09:35:48.244Z,65.80
2019-01-11T09:36:50.041Z,65.80
2019-01-11T09:37:51.064Z,65.80
2019-01-11T09:38:52.091Z,65.80
2019-01-11T09:39:53.117Z,66.40
2019-01-11T09:40:54.142Z,65.90
2019-01-11T09:41:55.157Z,65.90
2019-01-11T09:42:56.188Z,65.90
2019-01-11T09:43:57.219Z,65.90
2019-01-11T09:44:58.232Z,66.00
2019-01-11T09:45:59.565Z,66.00
2019-01-11T09:47:00.580Z,66.00
2019-01-11T09:48:01.614Z,65.40
2019-01-11T09:49:02.628Z,64.60
2019-01-11T09:50:06.800Z,65.20
2019-01-11T09:51:07.821Z,64.80
2019-01-11T09:52:08.955Z,65.30
2019-01-11T09:53:09.960Z,65.00
2019-01-11T09:54:10.974Z,65.30
2019-01-11T09:55:12.412Z,65.20
2019-01-11T09:56:13.434Z,65.40
2019-01-11T09:57:14.455Z,65.80
2019-01-11T09:58:15.476Z,65.20
2019-01-11T09:59:16.489Z,65.10
2019-01-11T10:00:20.522Z,65.90
2019-01-11T10:01:21.546Z,65.80
2019-01-11T10:02:24.489Z,65.80
2019-01-11T10:03:25.586Z,65.80
2019-01-11T10:04:28.522Z,65.80
2019-01-11T10:05:29.564Z,66.30
2019-01-11T10:06:32.489Z,66.60
2019-01-11T10:07:33.607Z,66.70
2019-01-11T10:08:34.636Z,66.60
2019-01-11T10:09:35.664Z,66.20
2019-01-11T10:10:36.698Z,66.50
2019-01-11T10:11:37.729Z,66.70
2019-01-11T10:12:38.741Z,66.90
2019-01-11T10:13:39.756Z,66.80
2019-01-11T10:14:40.772Z,67.10
2019-01-11T10:15:42.128Z,67.00
2019-01-11T10:16:43.149Z,66.30
2019-01-11T10:17:45.871Z,66.90
2019-01-11T10:18:46.906Z,67.10
2019-01-11T10:19:47.908Z,67.20
2019-01-11T10:20:49.837Z,66.60
2019-01-11T10:21:50.857Z,66.70
2019-01-11T10:22:51.868Z,66.90
2019-01-11T10:23:52.889Z,66.70
2019-01-11T10:24:53.912Z,66.70
2019-01-11T10:25:54.963Z,65.90
2019-01-11T10:26:55.992Z,65.90
2019-01-11T10:27:57.023Z,66.70
2019-01-11T10:28:58.040Z,65.90
2019-01-11T10:29:59.064Z,65.90
2019-01-11T10:31:00.778Z,66.00
2019-01-11T10:32:02.128Z,66.00
2019-01-11T10:33:03.165Z,66.10
2019-01-11T10:34:04.173Z,66.10
2019-01-11T10:35:06.693Z,66.10
2019-01-11T10:36:07.716Z,66.30
2019-01-11T10:37:08.740Z,66.00
2019-01-11T10:38:09.766Z,65.60
2019-01-11T10:39:10.901Z,65.00
2019-01-11T10:40:14.327Z,65.00
2019-01-11T10:41:15.355Z,65.30
2019-01-11T10:42:16.385Z,65.40
2019-01-11T10:43:17.417Z,65.30
2019-01-11T10:44:18.446Z,64.80
2019-01-11T10:45:20.068Z,64.60
2019-01-11T10:46:23.609Z,64.50
2019-01-11T10:47:24.633Z,64.30
2019-01-11T10:48:25.653Z,64.90
2019-01-11T10:49:26.684Z,65.80
2019-01-11T10:50:27.708Z,65.30
2019-01-11T10:51:28.770Z,65.30
2019-01-11T10:52:29.880Z,65.40
2019-01-11T10:53:30.899Z,64.90
2019-01-11T10:54:39.337Z,63.70
2019-01-11T10:55:40.383Z,64.10
2019-01-11T10:56:41.417Z,63.70
2019-01-11T10:57:42.936Z,64.20
2019-01-11T10:58:43.952Z,64.10
2019-01-11T10:59:44.972Z,63.70
2019-01-11T11:00:46.000Z,63.50
2019-01-11T11:01:47.040Z,63.90
2019-01-11T11:02:49.164Z,63.80
2019-01-11T11:03:50.176Z,64.20
2019-01-11T11:04:51.198Z,64.20
2019-01-11T11:05:52.244Z,64.00
2019-01-11T11:06:53.343Z,64.20
2019-01-11T11:07:54.364Z,64.20
2019-01-11T11:08:55.389Z,63.90
2019-01-11T11:09:56.413Z,64.00
2019-01-11T11:10:57.457Z,64.90
2019-01-11T11:11:58.497Z,63.30
2019-01-11T11:12:59.550Z,63.60
2019-01-11T11:14:00.557Z,63.70
2019-01-11T11:15:02.582Z,63.70
2019-01-11T11:16:03.605Z,63.80
2019-01-11T11:17:04.624Z,63.80
2019-01-11T11:18:05.748Z,63.80
2019-01-11T11:19:06.769Z,64.10
2019-01-11T11:20:10.994Z,64.30
2019-01-11T11:21:12.038Z,64.10
2019-01-11T11:22:13.069Z,64.50
2019-01-11T11:23:14.085Z,63.60
2019-01-11T11:24:15.104Z,63.30
2019-01-11T11:25:18.036Z,64.20
2019-01-11T11:26:19.067Z,64.20
2019-01-11T11:27:20.089Z,64.70
2019-01-11T11:28:21.114Z,64.90
2019-01-11T11:29:22.141Z,64.70
2019-01-11T11:30:23.168Z,64.60
2019-01-11T11:31:24.192Z,64.00
2019-01-11T11:32:27.120Z,64.50
2019-01-11T11:33:28.141Z,64.00
2019-01-11T11:34:29.283Z,63.80
2019-01-11T11:35:30.384Z,63.70
2019-01-11T11:36:31.408Z,63.80
2019-01-11T11:37:32.432Z,64.00
2019-01-11T11:38:33.456Z,64.10
2019-01-11T11:39:34.471Z,64.00
2019-01-11T11:40:35.588Z,64.00
2019-01-11T11:41:36.721Z,63.80
2019-01-11T11:42:37.781Z,64.00
2019-01-11T11:43:38.784Z,64.10
2019-01-11T11:44:39.865Z,63.90
2019-01-11T11:45:40.996Z,63.70
2019-01-11T11:46:42.028Z,63.30
2019-01-11T11:47:43.037Z,63.50
2019-01-11T11:48:44.064Z,63.80
2019-01-11T11:49:45.092Z,63.90
2019-01-11T11:50:46.108Z,64.20
2019-01-11T11:51:47.158Z,63.70
2019-01-11T11:52:48.193Z,63.90
2019-01-11T11:53:49.240Z,64.20
2019-01-11T11:54:50.295Z,64.50
2019-01-11T11:55:51.313Z,64.00
2019-01-11T11:56:52.344Z,63.50
2019-01-11T11:57:53.356Z,63.80
2019-01-11T11:58:54.376Z,63.80
2019-01-11T11:59:55.392Z,64.60
2019-01-11T12:00:56.411Z,64.10
2019-01-11T12:01:57.477Z,64.40
2019-01-11T12:02:58.527Z,64.40
2019-01-11T12:03:59.544Z,64.40
2019-01-11T12:05:00.573Z,64.40
2019-01-11T12:06:01.581Z,65.40
2019-01-11T12:07:02.817Z,64.50
2019-01-11T12:08:04.029Z,64.10
2019-01-11T12:09:06.665Z,64.30
2019-01-11T12:10:10.595Z,64.60
2019-01-11T12:11:11.669Z,65.00
2019-01-11T12:12:12.687Z,64.90
2019-01-11T12:13:13.707Z,64.80
2019-01-11T12:14:14.745Z,65.90
2019-01-11T12:15:15.766Z,64.50
2019-01-11T12:16:17.424Z,64.50
2019-01-11T12:17:18.480Z,64.50
2019-01-11T12:18:19.496Z,64.40
2019-01-11T12:19:20.520Z,64.20
2019-01-11T12:20:24.570Z,64.10
2019-01-11T12:21:25.660Z,64.20
2019-01-11T12:22:26.697Z,64.10
2019-01-11T12:23:27.721Z,64.50
2019-01-11T12:24:28.744Z,64.30
2019-01-11T12:25:29.773Z,64.70
2019-01-11T12:26:30.839Z,65.20
2019-01-11T12:27:31.858Z,65.30
2019-01-11T12:28:32.888Z,65.00
2019-01-11T12:29:33.910Z,65.30
2019-01-11T12:30:34.958Z,65.40
2019-01-11T12:31:35.971Z,65.90
2019-01-11T12:32:36.996Z,65.90
2019-01-11T12:33:38.028Z,65.80
2019-01-11T12:34:39.045Z,65.90
2019-01-11T12:35:40.060Z,65.90
2019-01-11T12:36:41.076Z,65.90
2019-01-11T12:37:42.132Z,65.90
2019-01-11T12:38:43.164Z,66.00
2019-01-11T12:39:44.188Z,66.00
2019-01-11T12:40:45.217Z,66.00
2019-01-11T12:41:46.246Z,66.00
2019-01-11T12:42:47.271Z,66.00
2019-01-11T12:43:48.288Z,65.90
2019-01-11T12:44:49.309Z,66.00
2019-01-11T12:45:50.340Z,66.70
2019-01-11T12:46:51.373Z,66.70
2019-01-11T12:47:52.403Z,66.90
2019-01-11T12:48:53.433Z,67.00
2019-01-11T12:49:54.443Z,67.10
2019-01-11T12:50:55.460Z,67.50
2019-01-11T12:51:56.505Z,67.70
2019-01-11T12:52:57.536Z,67.70
2019-01-11T12:53:58.573Z,68.00
2019-01-11T12:54:59.596Z,67.80
2019-01-11T12:56:00.605Z,68.40
2019-01-11T12:57:01.641Z,68.70
2019-01-11T12:58:02.878Z,68.90
2019-01-11T12:59:03.912Z,69.30
2019-01-11T13:00:08.762Z,70.30
2019-01-11T13:01:09.778Z,69.50
2019-01-11T13:02:10.800Z,68.90
2019-01-11T13:03:11.854Z,70.10
2019-01-11T13:04:12.870Z,69.90
2019-01-11T13:05:16.092Z,70.20
2019-01-11T13:06:17.119Z,70.30
2019-01-11T13:07:18.140Z,70.30
2019-01-11T13:08:19.182Z,70.30
2019-01-11T13:09:20.196Z,70.40
2019-01-11T13:10:21.227Z,70.30